Time;durP1;ratioP1;P1;durP2;ratioP2;P2;SDS_P1;SDS_P2;PMS_P1;PMS_P2;Temp;Humidity;BMP_temperature;BMP_pressure;BME280_temperature;BME280_humidity;BME280_pressure;Samples;Min_cycle;Max_cycle;Signal;HPM_P1;HPM_P2
2022/10/15 00:01:50;;;;;;;29.58;11.98;;;12.30;99.90;;;;;;5013640;28;20496;-63
2022/10/15 00:04:16;;;;;;;18.48;12.02;;;12.20;99.90;;;;;;5010719;28;20029;-63
2022/10/15 00:06:41;;;;;;;13.23;11.15;;;12.20;99.90;;;;;;5015784;28;20028;-62
2022/10/15 00:09:07;;;;;;;13.18;10.63;;;12.10;99.90;;;;;;5013237;28;20076;-63
2022/10/15 00:11:32;;;;;;;14.40;11.48;;;12.10;99.90;;;;;;5012666;28;20399;-63
2022/10/15 00:13:59;;;;;;;15.32;11.27;;;12.10;99.90;;;;;;5014925;28;20030;-63
2022/10/15 00:16:27;;;;;;;14.57;11.60;;;12.20;99.90;;;;;;5014769;28;20422;-62
2022/10/15 00:18:56;;;;;;;13.70;11.13;;;12.20;99.90;;;;;;5014519;28;20542;-63
2022/10/15 00:21:21;;;;;;;14.87;10.77;;;12.20;99.90;;;;;;5015531;28;20017;-63
2022/10/15 00:23:48;;;;;;;12.98;10.85;;;12.10;99.90;;;;;;5010310;28;20022;-62
2022/10/15 00:26:17;;;;;;;20.85;15.85;;;12.10;99.90;;;;;;5013633;28;20022;-63
2022/10/15 00:28:42;;;;;;;18.10;15.35;;;12.00;99.90;;;;;;5014249;28;20025;-63
2022/10/15 00:31:11;;;;;;;14.15;11.25;;;12.00;99.90;;;;;;5012248;28;20548;-62
2022/10/15 00:33:37;;;;;;;9.48;8.05;;;12.00;99.90;;;;;;5010192;28;20561;-63
2022/10/15 00:36:05;;;;;;;8.50;6.57;;;11.90;99.90;;;;;;5013840;28;20076;-62
2022/10/15 00:38:31;;;;;;;6.05;4.72;;;11.90;99.90;;;;;;5014341;28;20558;-63
2022/10/15 00:40:58;;;;;;;5.95;5.03;;;11.90;99.90;;;;;;5011277;28;20105;-61
2022/10/15 00:43:43;;;;;;;8.13;6.40;;;11.90;99.90;;;;;;5024919;28;20029;-63
2022/10/15 00:46:21;;;;;;;22.48;17.25;;;11.90;99.90;;;;;;5021663;28;20033;-62
2022/10/15 00:48:50;;;;;;;23.15;19.23;;;11.80;99.90;;;;;;5013010;28;20022;-62
2022/10/15 00:51:18;;;;;;;23.88;18.60;;;11.70;99.90;;;;;;5016400;28;20040;-62
2022/10/15 00:53:44;;;;;;;27.25;20.77;;;11.70;99.90;;;;;;5014337;28;20032;-63
2022/10/15 00:56:11;;;;;;;28.27;21.17;;;11.70;99.90;;;;;;5011046;28;20112;-62
2022/10/15 00:58:36;;;;;;;30.10;22.45;;;11.70;99.90;;;;;;5015422;28;20048;-62
2022/10/15 01:01:02;;;;;;;27.83;22.45;;;11.70;99.90;;;;;;5013709;28;20030;-63
2022/10/15 01:03:28;;;;;;;30.25;23.55;;;11.70;99.90;;;;;;5011881;28;20022;-63
2022/10/15 01:05:54;;;;;;;29.98;23.10;;;11.70;99.90;;;;;;5011828;28;20089;-63
2022/10/15 01:08:19;;;;;;;30.58;23.55;;;11.70;99.90;;;;;;5012869;28;20034;-62
2022/10/15 01:11:00;;;;;;;34.17;25.10;;;11.70;99.90;;;;;;5034099;28;20033;-62
2022/10/15 01:13:41;;;;;;;36.67;26.77;;;11.80;99.90;;;;;;5011471;28;20026;-62
2022/10/15 01:16:15;;;;;;;36.50;28.25;;;11.80;99.90;;;;;;5012951;28;20033;-63
2022/10/15 01:18:51;;;;;;;37.80;29.02;;;11.80;99.90;;;;;;5023649;28;20029;-62
2022/10/15 01:21:37;;;;;;;42.50;30.80;;;11.80;99.90;;;;;;5012803;28;20021;-62
2022/10/15 01:24:34;;;;;;;39.45;28.83;;;11.80;99.90;;;;;;5012543;28;20114;-63
2022/10/15 01:27:15;;;;;;;43.10;30.05;;;11.80;99.90;;;;;;5012579;28;20026;-62
2022/10/15 01:30:14;;;;;;;42.17;29.80;;;11.80;99.90;;;;;;5023441;28;20029;-62
2022/10/15 01:33:03;;;;;;;42.30;29.98;;;11.80;99.90;;;;;;5009391;28;20026;-62
2022/10/15 01:35:47;;;;;;;41.55;30.98;;;11.80;99.90;;;;;;5009945;28;20531;-63
2022/10/15 01:38:46;;;;;;;43.55;31.50;;;11.80;99.90;;;;;;5011543;28;20030;-62
2022/10/15 01:41:25;;;;;;;44.08;31.77;;;11.80;99.90;;;;;;5009897;28;20080;-62
2022/10/15 01:44:02;;;;;;;50.03;33.10;;;11.80;99.90;;;;;;5012900;28;20503;-62
2022/10/15 01:46:46;;;;;;;45.50;31.65;;;11.80;99.90;;;;;;5012598;28;20053;-63
2022/10/15 01:49:14;;;;;;;45.15;30.10;;;11.80;99.90;;;;;;5014346;28;20026;-62
2022/10/15 01:51:42;;;;;;;40.30;29.05;;;11.80;99.90;;;;;;5009931;28;20105;-63
2022/10/15 01:54:12;;;;;;;43.70;29.95;;;11.80;99.90;;;;;;5012639;28;20392;-62
2022/10/15 01:56:39;;;;;;;49.97;33.40;;;11.90;99.90;;;;;;5011439;28;20029;-62
2022/10/15 01:59:07;;;;;;;55.83;35.65;;;11.80;99.90;;;;;;5012651;28;20497;-62
2022/10/15 02:01:33;;;;;;;50.22;35.47;;;11.90;99.90;;;;;;5011242;28;20481;-62
2022/10/15 02:03:58;;;;;;;55.63;37.28;;;11.90;99.90;;;;;;5024286;28;20029;-62
2022/10/15 02:06:43;;;;;;;53.92;35.47;;;11.90;99.90;;;;;;5026196;28;20033;-62
2022/10/15 02:09:16;;;;;;;55.97;37.47;;;12.00;99.90;;;;;;5028574;28;20030;-63
2022/10/15 02:12:06;;;;;;;55.15;37.05;;;12.00;99.90;;;;;;5015225;28;20018;-63
2022/10/15 02:14:39;;;;;;;51.35;35.33;;;12.00;99.90;;;;;;5012225;28;20026;-62
2022/10/15 02:17:10;;;;;;;57.53;39.08;;;12.00;99.90;;;;;;5013229;28;20498;-62
2022/10/15 02:19:54;;;;;;;58.78;38.80;;;12.10;99.90;;;;;;5016874;28;20034;-62
2022/10/15 02:22:23;;;;;;;57.97;38.80;;;12.10;99.90;;;;;;5013282;28;20025;-62
2022/10/15 02:24:57;;;;;;;59.22;37.85;;;12.10;99.90;;;;;;5020914;28;20256;-62
2022/10/15 02:27:25;;;;;;;56.80;38.40;;;12.10;99.90;;;;;;5017650;28;20013;-62
2022/10/15 02:29:52;;;;;;;56.42;39.03;;;12.20;99.90;;;;;;5012673;28;20022;-62
2022/10/15 02:32:20;;;;;;;60.38;40.08;;;12.20;99.90;;;;;;5027327;28;20185;-62
2022/10/15 02:34:47;;;;;;;57.42;39.65;;;12.20;99.90;;;;;;5014908;28;20022;-62
2022/10/15 02:37:13;;;;;;;56.78;39.67;;;12.20;99.90;;;;;;5016287;28;20038;-62
2022/10/15 02:39:39;;;;;;;55.17;39.25;;;12.30;99.90;;;;;;5037621;28;20037;-63
2022/10/15 02:42:05;;;;;;;56.05;39.08;;;12.30;99.90;;;;;;5012827;28;20057;-62
2022/10/15 02:44:31;;;;;;;51.20;37.92;;;12.40;99.90;;;;;;5029059;28;20478;-62
2022/10/15 02:46:58;;;;;;;55.85;39.28;;;12.40;99.90;;;;;;5035009;28;20013;-62
2022/10/15 02:49:24;;;;;;;57.45;40.50;;;12.40;99.90;;;;;;5015041;28;20025;-62
2022/10/15 02:51:49;;;;;;;55.97;40.47;;;12.40;99.90;;;;;;5013390;28;20080;-62
2022/10/15 02:54:15;;;;;;;53.10;39.55;;;12.40;99.90;;;;;;5038415;28;20033;-63
2022/10/15 02:56:40;;;;;;;52.33;38.42;;;12.40;99.90;;;;;;5013279;28;20474;-62
2022/10/15 02:59:06;;;;;;;53.95;38.83;;;12.50;99.90;;;;;;5013722;28;20026;-62
2022/10/15 03:01:33;;;;;;;51.58;38.33;;;12.40;99.90;;;;;;5013049;28;20030;-62
2022/10/15 03:03:59;;;;;;;51.15;37.28;;;12.40;99.90;;;;;;5025993;28;20496;-62
2022/10/15 03:06:24;;;;;;;47.83;36.35;;;12.40;99.90;;;;;;5016988;28;20030;-62
2022/10/15 03:08:50;;;;;;;49.85;37.70;;;12.40;99.90;;;;;;5014887;28;20034;-62
2022/10/15 03:11:15;;;;;;;51.15;37.88;;;12.40;99.90;;;;;;5014805;28;20478;-62
2022/10/15 03:13:41;;;;;;;48.30;36.60;;;12.40;99.90;;;;;;5015296;28;20034;-64
2022/10/15 03:16:08;;;;;;;51.85;37.70;;;12.40;99.90;;;;;;5025658;28;20113;-62
2022/10/15 03:18:34;;;;;;;49.17;37.30;;;12.40;99.90;;;;;;5011896;28;20041;-62
2022/10/15 03:21:00;;;;;;;44.55;35.75;;;12.40;99.90;;;;;;5017222;28;20025;-62
2022/10/15 03:23:27;;;;;;;45.35;35.40;;;12.40;99.90;;;;;;5013083;28;20018;-62
2022/10/15 03:25:53;;;;;;;48.10;35.47;;;12.50;99.90;;;;;;5011432;28;20475;-62
2022/10/15 03:28:19;;;;;;;42.78;34.30;;;12.50;99.90;;;;;;5012925;28;20453;-62
2022/10/15 03:30:44;;;;;;;47.67;36.22;;;12.50;99.90;;;;;;5019298;28;20033;-62
2022/10/15 03:33:10;;;;;;;46.45;35.45;;;12.50;99.90;;;;;;5016847;28;20080;-62
2022/10/15 03:35:35;;;;;;;46.75;35.72;;;12.60;99.90;;;;;;5012635;28;20026;-62
2022/10/15 03:38:01;;;;;;;49.28;35.38;;;12.50;99.90;;;;;;5017865;28;20053;-62
2022/10/15 03:40:26;;;;;;;43.60;33.88;;;12.60;99.90;;;;;;5025978;28;20025;-62
2022/10/15 03:42:52;;;;;;;42.42;33.80;;;12.50;99.90;;;;;;5011179;28;20472;-62
2022/10/15 03:45:19;;;;;;;45.20;35.47;;;12.50;99.90;;;;;;5015842;28;20455;-62
2022/10/15 03:47:45;;;;;;;43.97;34.55;;;12.60;99.90;;;;;;5017568;28;20049;-62
2022/10/15 03:50:11;;;;;;;42.25;34.53;;;12.60;99.90;;;;;;5010235;28;20073;-62
2022/10/15 03:52:38;;;;;;;44.53;34.42;;;12.60;99.90;;;;;;5013147;28;20486;-62
2022/10/15 03:55:05;;;;;;;43.65;34.10;;;12.60;99.90;;;;;;5015703;28;20036;-62
2022/10/15 03:57:30;;;;;;;43.95;36.33;;;12.60;99.90;;;;;;5014033;28;20108;-62
2022/10/15 03:59:56;;;;;;;43.75;35.42;;;12.60;99.90;;;;;;5026130;28;20115;-62
2022/10/15 04:02:22;;;;;;;42.22;34.90;;;12.50;99.90;;;;;;5015659;28;20067;-62
2022/10/15 04:04:50;;;;;;;45.05;34.85;;;12.50;99.90;;;;;;5013870;28;20100;-62
2022/10/15 04:07:16;;;;;;;43.58;33.40;;;12.50;99.90;;;;;;5015408;28;20017;-62
2022/10/15 04:09:41;;;;;;;41.80;33.90;;;12.40;99.90;;;;;;5014715;28;20053;-62
2022/10/15 04:12:07;;;;;;;42.58;33.85;;;12.40;99.90;;;;;;5011546;28;20144;-63
2022/10/15 04:14:32;;;;;;;41.58;34.08;;;12.40;99.90;;;;;;5012194;28;20385;-62
2022/10/15 04:16:58;;;;;;;43.30;33.65;;;12.40;99.90;;;;;;5010530;28;20026;-62
2022/10/15 04:19:24;;;;;;;44.05;34.47;;;12.40;99.90;;;;;;5014440;28;20124;-62
2022/10/15 04:21:49;;;;;;;41.95;34.65;;;12.30;99.90;;;;;;5012347;28;20072;-62
2022/10/15 04:24:15;;;;;;;42.40;33.70;;;12.30;99.90;;;;;;5027145;28;20013;-62
2022/10/15 04:26:40;;;;;;;41.67;34.38;;;12.30;99.90;;;;;;5011034;28;20026;-62
2022/10/15 04:29:06;;;;;;;40.47;31.73;;;12.30;99.90;;;;;;5015903;28;20030;-62
2022/10/15 04:31:32;;;;;;;47.05;36.75;;;12.30;99.90;;;;;;5024496;28;20439;-62
2022/10/15 04:33:58;;;;;;;44.53;33.42;;;12.30;99.90;;;;;;5024241;28;20061;-62
2022/10/15 04:36:23;;;;;;;40.80;34.20;;;12.30;99.90;;;;;;5014377;28;20573;-61
2022/10/15 04:38:49;;;;;;;45.42;36.15;;;12.30;99.90;;;;;;5017017;28;20086;-62
2022/10/15 04:41:14;;;;;;;42.83;34.58;;;12.30;99.90;;;;;;5009834;28;20017;-61
2022/10/15 04:43:40;;;;;;;42.85;34.38;;;12.30;99.90;;;;;;5010436;28;20033;-61
2022/10/15 04:46:07;;;;;;;42.45;33.63;;;12.30;99.90;;;;;;5016707;28;20046;-62
2022/10/15 04:48:34;;;;;;;46.67;37.10;;;12.30;99.90;;;;;;5011635;28;20022;-62
2022/10/15 04:51:05;;;;;;;43.00;35.00;;;12.30;99.90;;;;;;5010225;28;20018;-62
2022/10/15 04:53:31;;;;;;;42.97;34.78;;;12.30;99.90;;;;;;5010358;28;20022;-62
2022/10/15 04:56:02;;;;;;;43.90;33.88;;;12.40;99.90;;;;;;5012778;28;20021;-61
2022/10/15 04:58:30;;;;;;;41.28;34.97;;;12.40;99.90;;;;;;5011546;28;20018;-62
2022/10/15 05:01:02;;;;;;;43.47;34.88;;;12.40;99.90;;;;;;5012674;28;20010;-62
2022/10/15 05:03:28;;;;;;;47.17;35.25;;;12.50;99.90;;;;;;5012970;28;20029;-62
2022/10/15 05:05:58;;;;;;;44.17;34.97;;;12.50;99.90;;;;;;5015477;28;20023;-62
2022/10/15 05:08:24;;;;;;;46.45;34.58;;;12.50;99.90;;;;;;5014621;28;20026;-62
2022/10/15 05:10:49;;;;;;;43.47;35.42;;;12.50;99.90;;;;;;5024146;28;20559;-62
2022/10/15 05:13:15;;;;;;;46.60;35.10;;;12.50;99.90;;;;;;5034523;28;20022;-62
2022/10/15 05:15:40;;;;;;;48.60;35.72;;;12.50;99.90;;;;;;5016364;28;20032;-62
2022/10/15 05:18:06;;;;;;;47.47;36.45;;;12.50;99.90;;;;;;5012975;28;20062;-62
2022/10/15 05:20:31;;;;;;;45.95;34.75;;;12.50;99.90;;;;;;5017921;28;20490;-61
2022/10/15 05:22:57;;;;;;;43.45;34.25;;;12.50;99.90;;;;;;5030780;28;20025;-62
2022/10/15 05:25:22;;;;;;;45.28;36.08;;;12.60;99.90;;;;;;5031724;28;20139;-62
2022/10/15 05:27:48;;;;;;;45.30;35.10;;;12.60;99.90;;;;;;5032189;28;20051;-62
2022/10/15 05:30:13;;;;;;;43.85;35.63;;;12.60;99.90;;;;;;5029297;28;20104;-62
2022/10/15 05:32:39;;;;;;;42.90;34.08;;;12.60;99.90;;;;;;5023349;28;20481;-62
2022/10/15 05:35:05;;;;;;;46.50;36.58;;;12.60;99.90;;;;;;5031662;28;20037;-62
2022/10/15 05:37:30;;;;;;;42.92;34.08;;;12.70;99.90;;;;;;5031441;28;20029;-62
2022/10/15 05:39:56;;;;;;;41.90;32.53;;;12.70;99.90;;;;;;5030576;28;20504;-62
2022/10/15 05:42:21;;;;;;;48.33;34.75;;;12.70;99.90;;;;;;5031702;28;20109;-61
2022/10/15 05:44:47;;;;;;;46.65;35.33;;;12.70;99.90;;;;;;5028656;28;20501;-62
2022/10/15 05:47:12;;;;;;;48.58;33.17;;;12.80;99.90;;;;;;5028708;28;20029;-62
2022/10/15 05:49:38;;;;;;;44.25;32.60;;;12.80;99.90;;;;;;5019491;28;20109;-62
2022/10/15 05:52:03;;;;;;;44.25;31.10;;;12.90;99.90;;;;;;5033895;28;20029;-62
2022/10/15 05:54:29;;;;;;;44.40;32.40;;;12.90;99.90;;;;;;5030577;28;20038;-62
2022/10/15 05:56:54;;;;;;;48.33;32.10;;;13.00;99.90;;;;;;5034595;28;20033;-62
2022/10/15 05:59:20;;;;;;;38.25;28.38;;;13.00;99.90;;;;;;5024828;28;20088;-62
2022/10/15 06:01:45;;;;;;;44.63;31.33;;;13.00;99.90;;;;;;5033330;28;20033;-62
2022/10/15 06:04:13;;;;;;;46.30;34.13;;;13.10;99.90;;;;;;5034838;28;20028;-62
2022/10/15 06:06:38;;;;;;;47.75;32.15;;;13.10;99.90;;;;;;5033893;28;20021;-62
2022/10/15 06:09:04;;;;;;;43.72;31.35;;;13.20;99.90;;;;;;5034389;28;20116;-62
2022/10/15 06:11:29;;;;;;;44.53;30.45;;;13.20;99.90;;;;;;5017142;28;20034;-62
2022/10/15 06:13:55;;;;;;;40.97;28.67;;;13.20;99.90;;;;;;5034378;28;20026;-62
2022/10/15 06:16:21;;;;;;;37.47;26.33;;;13.20;99.90;;;;;;5035065;28;20030;-62
2022/10/15 06:18:46;;;;;;;42.83;29.98;;;13.20;99.90;;;;;;5034361;28;20022;-63
2022/10/15 06:21:12;;;;;;;35.92;26.23;;;13.30;99.90;;;;;;5035082;28;20512;-62
2022/10/15 06:23:37;;;;;;;39.55;29.40;;;13.30;99.90;;;;;;5034821;28;20030;-62
2022/10/15 06:26:05;;;;;;;42.50;27.42;;;13.30;99.90;;;;;;5034102;28;20025;-62
2022/10/15 06:28:30;;;;;;;36.53;26.20;;;13.30;99.90;;;;;;5034510;28;20053;-62
2022/10/15 06:31:00;;;;;;;41.08;29.42;;;13.30;99.90;;;;;;5034829;28;20114;-62
2022/10/15 06:33:26;;;;;;;40.70;28.33;;;13.40;99.90;;;;;;5033859;28;20036;-62
2022/10/15 06:35:52;;;;;;;37.45;26.58;;;13.30;99.90;;;;;;5033739;28;20063;-62
2022/10/15 06:38:17;;;;;;;37.00;26.38;;;13.40;99.90;;;;;;5034309;28;20049;-62
2022/10/15 06:40:43;;;;;;;40.55;28.00;;;13.40;99.90;;;;;;5035101;28;20104;-62
2022/10/15 06:43:09;;;;;;;38.40;28.40;;;13.40;99.90;;;;;;5034415;28;20394;-62
2022/10/15 06:45:41;;;;;;;37.72;27.30;;;13.40;99.90;;;;;;5033868;28;20045;-62
2022/10/15 06:48:07;;;;;;;39.65;28.38;;;13.40;99.90;;;;;;5033266;28;20022;-62
2022/10/15 06:50:34;;;;;;;38.40;29.13;;;13.40;99.90;;;;;;5029945;28;20493;-62
2022/10/15 06:52:59;;;;;;;35.67;25.05;;;13.40;99.90;;;;;;5032422;28;20033;-61
2022/10/15 06:55:26;;;;;;;35.42;25.63;;;13.40;99.90;;;;;;5034248;28;20097;-62
2022/10/15 06:57:51;;;;;;;33.65;24.88;;;13.40;99.90;;;;;;5021369;28;20028;-62
2022/10/15 07:00:17;;;;;;;37.20;26.55;;;13.50;99.90;;;;;;5032417;28;20026;-61
2022/10/15 07:02:42;;;;;;;31.85;23.83;;;13.50;99.90;;;;;;5032333;28;20010;-62
2022/10/15 07:05:08;;;;;;;32.13;24.17;;;13.50;99.90;;;;;;5030852;28;20020;-62
2022/10/15 07:07:34;;;;;;;33.92;24.95;;;13.50;99.90;;;;;;5033628;28;20378;-62
2022/10/15 07:09:59;;;;;;;31.92;24.13;;;13.60;99.90;;;;;;5024103;28;20424;-62
2022/10/15 07:12:25;;;;;;;31.50;23.92;;;13.60;99.90;;;;;;5021427;28;20358;-62
2022/10/15 07:14:50;;;;;;;32.22;25.63;;;13.60;99.90;;;;;;5033940;28;20040;-62
2022/10/15 07:17:16;;;;;;;33.65;23.92;;;13.60;99.90;;;;;;5033835;28;20474;-62
2022/10/15 07:19:42;;;;;;;32.38;24.42;;;13.60;99.90;;;;;;5033969;28;20032;-62
2022/10/15 07:22:08;;;;;;;34.83;26.55;;;13.60;99.90;;;;;;5033846;28;20013;-62
2022/10/15 07:24:34;;;;;;;37.20;28.13;;;13.70;99.90;;;;;;5023557;28;20073;-62
2022/10/15 07:27:00;;;;;;;32.38;25.13;;;13.70;99.90;;;;;;5028633;28;20480;-62
2022/10/15 07:29:25;;;;;;;33.10;25.65;;;13.70;99.90;;;;;;5029534;28;20029;-62
2022/10/15 07:31:50;;;;;;;36.90;27.73;;;13.70;99.90;;;;;;5030487;28;20034;-62
2022/10/15 07:34:16;;;;;;;38.72;28.50;;;13.70;99.90;;;;;;5034071;28;20039;-62
2022/10/15 07:36:42;;;;;;;37.90;29.48;;;13.70;99.90;;;;;;5032316;28;20435;-62
2022/10/15 07:39:08;;;;;;;39.28;29.13;;;13.80;99.90;;;;;;5033700;28;20037;-62
2022/10/15 07:41:34;;;;;;;41.20;29.40;;;13.90;99.90;;;;;;5030128;28;20041;-62
2022/10/15 07:43:59;;;;;;;38.22;30.20;;;14.00;99.90;;;;;;5032426;28;20033;-62
2022/10/15 07:46:25;;;;;;;37.83;28.25;;;14.00;99.90;;;;;;5033131;28;20025;-62
2022/10/15 07:48:51;;;;;;;39.05;29.80;;;14.00;99.90;;;;;;5032841;28;20105;-62
2022/10/15 07:51:16;;;;;;;36.70;27.30;;;14.00;99.90;;;;;;5032090;28;20112;-62
2022/10/15 07:53:42;;;;;;;41.30;28.80;;;14.10;99.90;;;;;;5020066;28;20049;-62
2022/10/15 07:56:11;;;;;;;38.72;27.38;;;14.10;99.90;;;;;;5018368;28;20029;-62
2022/10/15 07:58:37;;;;;;;35.28;27.85;;;14.10;99.90;;;;;;5033073;28;20103;-62
2022/10/15 08:01:04;;;;;;;34.47;26.90;;;14.10;99.90;;;;;;5031641;28;20493;-62
2022/10/15 08:03:30;;;;;;;37.97;26.98;;;14.10;99.90;;;;;;5033268;28;20055;-62
2022/10/15 08:05:59;;;;;;;36.10;27.40;;;14.20;99.90;;;;;;5032980;28;20025;-62
2022/10/15 08:08:24;;;;;;;33.72;27.50;;;14.20;99.90;;;;;;5033118;28;20025;-62
2022/10/15 08:10:50;;;;;;;33.15;26.88;;;14.30;99.90;;;;;;5026000;28;20509;-62
2022/10/15 08:13:16;;;;;;;35.58;27.77;;;14.30;99.90;;;;;;5011691;28;20474;-62
2022/10/15 08:15:42;;;;;;;32.05;25.58;;;14.50;99.90;;;;;;5032797;28;20359;-62
2022/10/15 08:18:08;;;;;;;34.75;26.00;;;14.60;99.90;;;;;;5032829;28;20037;-62
2022/10/15 08:20:35;;;;;;;30.70;23.55;;;14.70;99.90;;;;;;5032787;28;20018;-62
2022/10/15 08:23:01;;;;;;;32.13;24.85;;;14.70;99.90;;;;;;5032902;28;20096;-62
2022/10/15 08:25:27;;;;;;;28.98;23.42;;;14.80;99.90;;;;;;5027835;28;20014;-62
2022/10/15 08:27:53;;;;;;;30.00;22.13;;;14.80;99.90;;;;;;5031905;28;20539;-62
2022/10/15 08:30:18;;;;;;;29.40;22.70;;;14.80;99.90;;;;;;5044728;28;20049;-62
2022/10/15 08:32:44;;;;;;;29.73;22.88;;;14.80;99.90;;;;;;5027652;28;20076;-62
2022/10/15 08:35:10;;;;;;;25.55;21.52;;;14.80;99.90;;;;;;5029889;28;20026;-62
2022/10/15 08:37:35;;;;;;;29.38;22.13;;;14.80;99.90;;;;;;5032367;28;20036;-62
2022/10/15 08:40:02;;;;;;;26.88;22.33;;;14.90;99.90;;;;;;5030217;28;20041;-61
2022/10/15 08:42:40;;;;;;;27.45;21.25;;;14.90;99.90;;;;;;5032609;28;20042;-62
2022/10/15 08:45:14;;;;;;;26.25;20.45;;;15.00;99.90;;;;;;5030406;28;20053;-62
2022/10/15 08:47:45;;;;;;;28.20;21.35;;;15.10;99.90;;;;;;5016971;28;20021;-62
2022/10/15 08:50:27;;;;;;;25.10;20.17;;;15.20;99.90;;;;;;5030272;28;20101;-62
2022/10/15 08:52:54;;;;;;;24.70;20.55;;;15.20;99.90;;;;;;5028424;28;20058;-62
2022/10/15 08:55:21;;;;;;;23.48;18.52;;;15.30;99.90;;;;;;5020409;28;20099;-62
2022/10/15 08:58:35;;;;;;;23.60;18.30;;;15.30;99.90;;;;;;5029939;28;20055;-62
2022/10/15 09:01:09;;;;;;;28.30;20.58;;;15.40;99.90;;;;;;5030489;28;20037;-62
2022/10/15 09:03:53;;;;;;;22.25;18.52;;;15.40;99.90;;;;;;5031023;28;20063;-62
2022/10/15 09:06:27;;;;;;;21.63;17.95;;;15.40;99.90;;;;;;5020853;28;20025;-62
2022/10/15 09:09:05;;;;;;;19.42;16.27;;;15.40;99.90;;;;;;5027369;28;20034;-62
2022/10/15 09:12:00;;;;;;;20.92;16.55;;;15.40;99.90;;;;;;5015727;28;20026;-62
2022/10/15 09:14:30;;;;;;;19.63;15.55;;;15.50;99.90;;;;;;5021376;28;20020;-62
2022/10/15 09:17:00;;;;;;;21.02;16.38;;;15.60;99.90;;;;;;5017687;28;20029;-62
2022/10/15 09:19:28;;;;;;;19.67;15.93;;;15.60;99.90;;;;;;5019142;28;20060;-62
2022/10/15 09:21:54;;;;;;;21.48;15.63;;;15.70;99.90;;;;;;5016731;28;20101;-62
2022/10/15 09:24:23;;;;;;;19.38;15.90;;;15.60;99.90;;;;;;5022060;28;20080;-62
2022/10/15 09:27:12;;;;;;;19.95;16.48;;;15.60;99.90;;;;;;5034292;28;20085;-62
2022/10/15 09:29:53;;;;;;;16.00;13.93;;;15.60;99.90;;;;;;5036180;28;20452;-62
2022/10/15 09:32:30;;;;;;;16.38;14.00;;;15.60;99.90;;;;;;5022299;28;20052;-62
2022/10/15 09:35:11;;;;;;;16.67;12.85;;;15.60;99.90;;;;;;5022614;28;20030;-62
2022/10/15 09:38:02;;;;;;;17.40;13.82;;;15.70;99.90;;;;;;5034447;28;20041;-62
2022/10/15 09:40:56;;;;;;;16.33;13.60;;;15.70;99.90;;;;;;5028075;28;20022;-62
2022/10/15 09:43:29;;;;;;;14.63;12.30;;;15.70;99.90;;;;;;5031108;28;20073;-62
2022/10/15 09:45:55;;;;;;;15.45;12.55;;;15.70;99.90;;;;;;5033797;28;20495;-62
2022/10/15 09:48:22;;;;;;;17.50;13.25;;;15.60;99.90;;;;;;5020762;28;20030;-62
2022/10/15 09:50:53;;;;;;;15.60;13.38;;;15.70;99.90;;;;;;5031574;28;20052;-62
2022/10/15 09:53:49;;;;;;;17.65;12.60;;;15.70;99.90;;;;;;5032113;28;20075;-62
2022/10/15 09:56:20;;;;;;;13.73;11.30;;;15.70;99.90;;;;;;5032869;28;20646;-62
2022/10/15 09:58:52;;;;;;;17.45;13.75;;;15.70;99.90;;;;;;5034805;28;20486;-62
2022/10/15 10:01:20;;;;;;;15.98;12.88;;;15.60;99.90;;;;;;5035732;28;20068;-62
2022/10/15 10:03:52;;;;;;;16.00;12.68;;;15.60;99.90;;;;;;5030775;28;20060;-62
2022/10/15 10:06:19;;;;;;;17.23;13.07;;;15.60;99.90;;;;;;5035516;28;20041;-62
2022/10/15 10:08:56;;;;;;;15.93;12.63;;;15.60;99.90;;;;;;5031405;28;20059;-62
2022/10/15 10:11:24;;;;;;;18.13;13.73;;;15.50;99.90;;;;;;5024147;28;20441;-62
2022/10/15 10:13:58;;;;;;;17.15;13.23;;;15.50;99.90;;;;;;5020302;28;20017;-62
2022/10/15 10:16:24;;;;;;;16.48;13.20;;;15.40;99.90;;;;;;5035383;28;20037;-62
2022/10/15 10:19:12;;;;;;;16.35;12.95;;;15.40;99.90;;;;;;5034542;28;20065;-62
2022/10/15 10:21:41;;;;;;;18.05;12.98;;;15.40;99.90;;;;;;5035616;28;20048;-62
2022/10/15 10:24:29;;;;;;;15.43;12.07;;;15.40;99.90;;;;;;5033844;28;20063;-62
2022/10/15 10:26:55;;;;;;;18.45;12.70;;;15.40;99.90;;;;;;5034187;28;20014;-62
2022/10/15 10:29:22;;;;;;;18.40;13.32;;;15.30;99.90;;;;;;5033649;28;20029;-62
2022/10/15 10:31:50;;;;;;;15.10;11.75;;;15.40;99.90;;;;;;5034607;28;20363;-62
2022/10/15 10:34:24;;;;;;;16.90;12.20;;;15.30;99.90;;;;;;5034271;28;20064;-62
2022/10/15 10:36:51;;;;;;;17.38;12.48;;;15.40;99.90;;;;;;5033735;28;20444;-62
2022/10/15 10:39:29;;;;;;;15.85;12.43;;;15.30;99.90;;;;;;5035002;28;20481;-62
2022/10/15 10:42:22;;;;;;;17.20;12.10;;;15.40;99.90;;;;;;5032666;28;20030;-62
2022/10/15 10:44:48;;;;;;;15.75;12.80;;;15.40;99.90;;;;;;5033926;28;20017;-62
2022/10/15 10:47:24;;;;;;;17.73;12.88;;;15.30;99.90;;;;;;5034062;28;20032;-62
2022/10/15 10:49:51;;;;;;;18.08;13.30;;;15.30;99.90;;;;;;5035037;28;20029;-62
2022/10/15 10:52:19;;;;;;;18.08;12.77;;;15.30;99.90;;;;;;5033865;28;20022;-62
2022/10/15 10:54:47;;;;;;;16.80;11.65;;;15.30;99.90;;;;;;5033520;28;20097;-62
2022/10/15 10:57:17;;;;;;;15.63;12.02;;;15.30;99.90;;;;;;5034503;28;20381;-62
2022/10/15 10:59:49;;;;;;;16.67;13.05;;;15.30;99.90;;;;;;5023463;28;20401;-62
2022/10/15 11:02:14;;;;;;;15.52;11.85;;;15.30;99.90;;;;;;5031902;28;20026;-62
2022/10/15 11:04:40;;;;;;;15.20;12.18;;;15.30;99.90;;;;;;5034633;28;20495;-62
2022/10/15 11:07:24;;;;;;;17.65;12.73;;;15.30;99.90;;;;;;5032126;28;20089;-62
2022/10/15 11:10:13;;;;;;;19.05;12.93;;;15.30;99.90;;;;;;5034545;28;20030;-62
2022/10/15 11:12:59;;;;;;;17.90;13.00;;;15.30;99.90;;;;;;5023284;28;20021;-62
2022/10/15 11:15:58;;;;;;;14.98;11.55;;;15.30;99.90;;;;;;5029298;28;20482;-62
2022/10/15 11:18:31;;;;;;;14.40;11.65;;;15.40;99.90;;;;;;5029574;28;20030;-62
2022/10/15 11:21:16;;;;;;;14.60;10.70;;;15.30;99.90;;;;;;5029757;28;20089;-62
2022/10/15 11:24:04;;;;;;;13.23;10.27;;;15.40;99.90;;;;;;5030046;28;20071;-62
2022/10/15 11:26:56;;;;;;;14.57;10.10;;;15.40;99.90;;;;;;5033634;28;20022;-62
2022/10/15 11:29:36;;;;;;;14.45;10.20;;;15.40;99.90;;;;;;5026586;28;20037;-62
2022/10/15 11:32:19;;;;;;;;;;;15.50;99.90;;;;;;5027591;28;20035;-62
2022/10/15 11:35:15;;;;;;;12.38;8.65;;;15.50;99.90;;;;;;5033698;28;20036;-62
2022/10/15 11:38:03;;;;;;;12.25;8.95;;;15.60;99.90;;;;;;5025239;28;20053;-62
2022/10/15 11:40:37;;;;;;;10.07;7.88;;;15.60;99.90;;;;;;5027093;28;20481;-61
2022/10/15 11:43:14;;;;;;;11.57;7.35;;;15.60;99.90;;;;;;5024596;28;20486;-62
2022/10/15 11:45:55;;;;;;;9.13;6.78;;;15.70;99.90;;;;;;5033691;28;21523;-62
2022/10/15 11:48:39;;;;;;;14.30;7.10;;;15.70;99.90;;;;;;5028601;28;20422;-62
2022/10/15 11:51:16;;;;;;;9.13;6.93;;;15.70;99.90;;;;;;5024496;28;20029;-62
2022/10/15 11:53:53;;;;;;;10.40;6.70;;;15.80;99.90;;;;;;5033541;28;20022;-62
2022/10/15 11:56:27;;;;;;;10.55;6.90;;;15.80;99.90;;;;;;5026703;28;20052;-62
2022/10/15 11:59:01;;;;;;;8.18;6.40;;;15.80;99.90;;;;;;5032392;28;20042;-62
2022/10/15 12:01:59;;;;;;;7.10;5.82;;;15.90;99.90;;;;;;5031796;28;20021;-62
2022/10/15 12:04:48;;;;;;;6.82;5.35;;;15.90;99.90;;;;;;5031536;28;20013;-62
2022/10/15 12:07:32;;;;;;;5.10;4.35;;;16.00;99.90;;;;;;5011537;28;20041;-62
2022/10/15 12:10:36;;;;;;;7.25;4.93;;;16.00;99.90;;;;;;5031773;28;20037;-62
2022/10/15 12:13:18;;;;;;;4.35;3.95;;;16.10;99.90;;;;;;5010086;28;20052;-62
2022/10/15 12:15:58;;;;;;;5.10;4.20;;;16.20;99.90;;;;;;5024805;28;20536;-62
2022/10/15 12:18:45;;;;;;;6.03;4.90;;;16.20;99.90;;;;;;5028545;28;20029;-62
2022/10/15 12:21:29;;;;;;;5.43;3.65;;;16.30;99.90;;;;;;5024727;28;20038;-62
2022/10/15 12:23:54;;;;;;;4.25;3.85;;;16.40;99.90;;;;;;5025781;28;20053;-62
2022/10/15 12:26:22;;;;;;;4.97;4.47;;;16.40;99.90;;;;;;5030445;28;20115;-62
2022/10/15 12:28:51;;;;;;;4.00;3.60;;;16.50;99.90;;;;;;5030874;28;20025;-62
2022/10/15 12:31:20;;;;;;;5.70;3.85;;;16.50;99.90;;;;;;5029329;28;20029;-62
2022/10/15 12:33:56;;;;;;;3.63;3.15;;;16.60;99.90;;;;;;5027489;28;20045;-62
2022/10/15 12:36:29;;;;;;;3.80;3.40;;;16.70;99.90;;;;;;5023286;28;20030;-62
2022/10/15 12:39:01;;;;;;;3.42;3.13;;;16.70;99.90;;;;;;5031522;28;20172;-62
2022/10/15 12:41:36;;;;;;;4.28;3.25;;;16.70;99.90;;;;;;5032469;28;20044;-62
2022/10/15 12:44:29;;;;;;;3.53;2.70;;;16.80;99.90;;;;;;5025406;28;20112;-62
2022/10/15 12:46:55;;;;;;;3.20;2.88;;;16.90;99.90;;;;;;5026288;28;20017;-62